Terminal Aerodrome Forecast
Issued by NWS St Louis, MO

Home | Current Version | Previous Version | Text Only | Print | Product List | Glossary On
Versions: 1 2 3 4 5 6 7 8 9 10 11 12 13 14 15 16 17 18 19 20 21 22 23 24 25 26 27
000
FTUS43 KLSX 182134 AAA
TAFSTL
TAF AMD
KSTL 182134Z 1822/1924 16007KT P6SM SCT150 BKN200
     FM190100 15004KT P6SM BKN025
     FM190300 VRB03KT 3SM BR BKN025
     FM190800 VRB03KT 2SM BR VCSH OVC015
     FM191300 11004KT 2SM -SHRA BR OVC005=

USA.gov is the U.S. government's official web portal to all federal, state and local government web resources and services.